sensor_id;sensor_type;location;lat;lon;timestamp;P1;durP1;ratioP1;P2;durP2;ratioP2
41623;SDS011;27319;50.306;18.926;2024-01-16T00:01:47;18.33;;;10.02;;
41623;SDS011;27319;50.306;18.926;2024-01-16T00:05:48;21.30;;;9.80;;
41623;SDS011;27319;50.306;18.926;2024-01-16T00:09:49;18.17;;;9.95;;
41623;SDS011;27319;50.306;18.926;2024-01-16T00:12:52;15.70;;;9.07;;
41623;SDS011;27319;50.306;18.926;2024-01-16T00:15:54;18.17;;;8.63;;
41623;SDS011;27319;50.306;18.926;2024-01-16T00:18:57;19.95;;;10.20;;
41623;SDS011;27319;50.306;18.926;2024-01-16T00:22:57;19.15;;;10.00;;
41623;SDS011;27319;50.306;18.926;2024-01-16T00:26:58;21.45;;;8.52;;
41623;SDS011;27319;50.306;18.926;2024-01-16T00:29:59;19.08;;;9.48;;
41623;SDS011;27319;50.306;18.926;2024-01-16T00:34:00;15.48;;;8.38;;
41623;SDS011;27319;50.306;18.926;2024-01-16T00:38:01;19.63;;;9.88;;
41623;SDS011;27319;50.306;18.926;2024-01-16T00:42:02;17.23;;;7.70;;
41623;SDS011;27319;50.306;18.926;2024-01-16T00:46:02;22.13;;;10.38;;
41623;SDS011;27319;50.306;18.926;2024-01-16T00:50:03;17.60;;;9.02;;
41623;SDS011;27319;50.306;18.926;2024-01-16T00:54:03;20.27;;;8.68;;
41623;SDS011;27319;50.306;18.926;2024-01-16T00:57:07;18.63;;;9.95;;
41623;SDS011;27319;50.306;18.926;2024-01-16T01:00:08;20.15;;;9.73;;
41623;SDS011;27319;50.306;18.926;2024-01-16T01:03:31;15.30;;;8.27;;
41623;SDS011;27319;50.306;18.926;2024-01-16T01:06:32;15.50;;;8.88;;
41623;SDS011;27319;50.306;18.926;2024-01-16T01:10:33;17.40;;;8.82;;
41623;SDS011;27319;50.306;18.926;2024-01-16T01:14:34;15.70;;;8.63;;
41623;SDS011;27319;50.306;18.926;2024-01-16T01:18:34;14.05;;;7.13;;
41623;SDS011;27319;50.306;18.926;2024-01-16T01:22:35;15.25;;;7.57;;
41623;SDS011;27319;50.306;18.926;2024-01-16T01:26:36;18.73;;;9.07;;
41623;SDS011;27319;50.306;18.926;2024-01-16T01:30:37;15.88;;;8.05;;
41623;SDS011;27319;50.306;18.926;2024-01-16T01:34:37;17.05;;;8.63;;
41623;SDS011;27319;50.306;18.926;2024-01-16T01:38:38;14.80;;;7.75;;
41623;SDS011;27319;50.306;18.926;2024-01-16T01:42:40;18.42;;;8.65;;
41623;SDS011;27319;50.306;18.926;2024-01-16T01:46:40;16.38;;;8.50;;
41623;SDS011;27319;50.306;18.926;2024-01-16T01:50:40;16.00;;;8.65;;
41623;SDS011;27319;50.306;18.926;2024-01-16T01:54:21;16.42;;;8.90;;
41623;SDS011;27319;50.306;18.926;2024-01-16T01:57:24;20.15;;;8.38;;
41623;SDS011;27319;50.306;18.926;2024-01-16T02:00:34;20.65;;;9.82;;
41623;SDS011;27319;50.306;18.926;2024-01-16T02:03:42;15.95;;;9.20;;
41623;SDS011;27319;50.306;18.926;2024-01-16T02:06:45;19.35;;;9.57;;
41623;SDS011;27319;50.306;18.926;2024-01-16T02:09:54;17.90;;;8.03;;
41623;SDS011;27319;50.306;18.926;2024-01-16T02:12:55;18.48;;;8.68;;
41623;SDS011;27319;50.306;18.926;2024-01-16T02:15:56;15.23;;;8.18;;
41623;SDS011;27319;50.306;18.926;2024-01-16T02:18:56;17.25;;;8.52;;
41623;SDS011;27319;50.306;18.926;2024-01-16T02:21:59;14.27;;;7.72;;
41623;SDS011;27319;50.306;18.926;2024-01-16T02:25:01;16.02;;;8.35;;
41623;SDS011;27319;50.306;18.926;2024-01-16T02:28:03;16.42;;;7.78;;
41623;SDS011;27319;50.306;18.926;2024-01-16T02:31:04;14.20;;;7.50;;
41623;SDS011;27319;50.306;18.926;2024-01-16T02:35:05;13.60;;;7.38;;
41623;SDS011;27319;50.306;18.926;2024-01-16T02:39:06;12.48;;;7.03;;
41623;SDS011;27319;50.306;18.926;2024-01-16T02:43:07;16.13;;;6.95;;
41623;SDS011;27319;50.306;18.926;2024-01-16T02:47:07;14.02;;;6.25;;
41623;SDS011;27319;50.306;18.926;2024-01-16T02:51:08;11.57;;;6.75;;
41623;SDS011;27319;50.306;18.926;2024-01-16T02:54:09;13.25;;;7.35;;
41623;SDS011;27319;50.306;18.926;2024-01-16T02:57:10;14.02;;;7.68;;
41623;SDS011;27319;50.306;18.926;2024-01-16T03:00:11;13.48;;;7.65;;
41623;SDS011;27319;50.306;18.926;2024-01-16T03:04:12;13.50;;;8.00;;
41623;SDS011;27319;50.306;18.926;2024-01-16T03:08:13;13.93;;;8.43;;
41623;SDS011;27319;50.306;18.926;2024-01-16T03:12:14;12.88;;;7.32;;
41623;SDS011;27319;50.306;18.926;2024-01-16T03:16:14;18.63;;;8.13;;
41623;SDS011;27319;50.306;18.926;2024-01-16T03:19:31;15.45;;;7.88;;
41623;SDS011;27319;50.306;18.926;2024-01-16T03:22:32;38.13;;;17.17;;
41623;SDS011;27319;50.306;18.926;2024-01-16T03:25:33;21.98;;;12.13;;
41623;SDS011;27319;50.306;18.926;2024-01-16T03:29:34;13.90;;;8.02;;
41623;SDS011;27319;50.306;18.926;2024-01-16T03:33:15;13.02;;;7.85;;
41623;SDS011;27319;50.306;18.926;2024-01-16T03:36:15;15.40;;;9.10;;
41623;SDS011;27319;50.306;18.926;2024-01-16T03:40:16;16.30;;;9.25;;
41623;SDS011;27319;50.306;18.926;2024-01-16T03:44:17;28.98;;;10.93;;
41623;SDS011;27319;50.306;18.926;2024-01-16T03:48:20;15.85;;;9.13;;
41623;SDS011;27319;50.306;18.926;2024-01-16T03:52:21;18.52;;;9.32;;
41623;SDS011;27319;50.306;18.926;2024-01-16T03:56:22;23.48;;;11.20;;
41623;SDS011;27319;50.306;18.926;2024-01-16T04:00:23;23.02;;;10.73;;
41623;SDS011;27319;50.306;18.926;2024-01-16T04:04:24;33.70;;;11.30;;
41623;SDS011;27319;50.306;18.926;2024-01-16T04:08:24;32.15;;;11.75;;
41623;SDS011;27319;50.306;18.926;2024-01-16T04:12:25;17.52;;;7.30;;
41623;SDS011;27319;50.306;18.926;2024-01-16T04:16:26;20.00;;;8.50;;
41623;SDS011;27319;50.306;18.926;2024-01-16T04:20:27;16.25;;;7.00;;
41623;SDS011;27319;50.306;18.926;2024-01-16T04:24:28;7.85;;;4.28;;
41623;SDS011;27319;50.306;18.926;2024-01-16T04:28:29;7.57;;;4.00;;
41623;SDS011;27319;50.306;18.926;2024-01-16T04:32:29;8.30;;;4.53;;
41623;SDS011;27319;50.306;18.926;2024-01-16T04:36:30;11.93;;;5.78;;
41623;SDS011;27319;50.306;18.926;2024-01-16T04:40:31;15.55;;;6.28;;
41623;SDS011;27319;50.306;18.926;2024-01-16T04:44:32;12.52;;;7.00;;
41623;SDS011;27319;50.306;18.926;2024-01-16T04:48:32;20.98;;;8.35;;
41623;SDS011;27319;50.306;18.926;2024-01-16T04:52:33;20.80;;;9.50;;
41623;SDS011;27319;50.306;18.926;2024-01-16T04:55:49;36.08;;;9.13;;
41623;SDS011;27319;50.306;18.926;2024-01-16T04:58:50;20.48;;;8.40;;
41623;SDS011;27319;50.306;18.926;2024-01-16T05:01:51;22.05;;;6.97;;
41623;SDS011;27319;50.306;18.926;2024-01-16T05:05:51;15.00;;;4.63;;
41623;SDS011;27319;50.306;18.926;2024-01-16T05:09:52;27.77;;;6.13;;
41623;SDS011;27319;50.306;18.926;2024-01-16T05:13:53;58.60;;;13.38;;
41623;SDS011;27319;50.306;18.926;2024-01-16T05:17:54;25.00;;;7.43;;
41623;SDS011;27319;50.306;18.926;2024-01-16T05:21:54;20.98;;;6.28;;
41623;SDS011;27319;50.306;18.926;2024-01-16T05:25:55;93.82;;;20.90;;
41623;SDS011;27319;50.306;18.926;2024-01-16T05:29:56;51.83;;;13.90;;
41623;SDS011;27319;50.306;18.926;2024-01-16T05:33:52;75.60;;;17.65;;
41623;SDS011;27319;50.306;18.926;2024-01-16T05:36:53;103.57;;;21.80;;
41623;SDS011;27319;50.306;18.926;2024-01-16T05:39:54;62.67;;;16.67;;
41623;SDS011;27319;50.306;18.926;2024-01-16T05:42:55;83.78;;;17.05;;
41623;SDS011;27319;50.306;18.926;2024-01-16T05:45:57;74.60;;;17.80;;
41623;SDS011;27319;50.306;18.926;2024-01-16T05:48:58;51.03;;;14.00;;
41623;SDS011;27319;50.306;18.926;2024-01-16T05:51:59;98.38;;;22.67;;
41623;SDS011;27319;50.306;18.926;2024-01-16T05:54:59;92.43;;;22.60;;
41623;SDS011;27319;50.306;18.926;2024-01-16T05:58:00;75.65;;;21.55;;
41623;SDS011;27319;50.306;18.926;2024-01-16T06:01:01;77.90;;;22.42;;
41623;SDS011;27319;50.306;18.926;2024-01-16T06:04:02;42.30;;;15.23;;
41623;SDS011;27319;50.306;18.926;2024-01-16T06:07:03;57.45;;;20.73;;
41623;SDS011;27319;50.306;18.926;2024-01-16T06:10:07;72.63;;;30.15;;
41623;SDS011;27319;50.306;18.926;2024-01-16T06:13:09;46.15;;;19.40;;
41623;SDS011;27319;50.306;18.926;2024-01-16T06:16:10;43.88;;;13.88;;
41623;SDS011;27319;50.306;18.926;2024-01-16T06:19:10;99.50;;;22.10;;
41623;SDS011;27319;50.306;18.926;2024-01-16T06:22:11;68.57;;;18.15;;
41623;SDS011;27319;50.306;18.926;2024-01-16T06:25:12;44.13;;;17.10;;
41623;SDS011;27319;50.306;18.926;2024-01-16T06:28:13;29.02;;;13.25;;
41623;SDS011;27319;50.306;18.926;2024-01-16T06:31:14;37.30;;;17.63;;
41623;SDS011;27319;50.306;18.926;2024-01-16T06:34:17;40.08;;;18.77;;
41623;SDS011;27319;50.306;18.926;2024-01-16T06:38:17;57.63;;;21.08;;
41623;SDS011;27319;50.306;18.926;2024-01-16T06:42:18;45.42;;;18.45;;
41623;SDS011;27319;50.306;18.926;2024-01-16T06:46:19;35.20;;;13.70;;
41623;SDS011;27319;50.306;18.926;2024-01-16T06:50:20;26.25;;;13.27;;
41623;SDS011;27319;50.306;18.926;2024-01-16T06:54:21;35.88;;;17.23;;
41623;SDS011;27319;50.306;18.926;2024-01-16T06:58:21;30.45;;;13.25;;
41623;SDS011;27319;50.306;18.926;2024-01-16T07:02:22;28.00;;;11.43;;
41623;SDS011;27319;50.306;18.926;2024-01-16T07:06:23;29.67;;;13.38;;
41623;SDS011;27319;50.306;18.926;2024-01-16T07:10:24;35.33;;;16.02;;
41623;SDS011;27319;50.306;18.926;2024-01-16T07:14:25;31.63;;;15.57;;
41623;SDS011;27319;50.306;18.926;2024-01-16T07:18:28;55.33;;;22.40;;
41623;SDS011;27319;50.306;18.926;2024-01-16T07:22:29;47.20;;;20.90;;
41623;SDS011;27319;50.306;18.926;2024-01-16T07:26:30;49.20;;;24.95;;
41623;SDS011;27319;50.306;18.926;2024-01-16T07:30:31;45.00;;;24.40;;
41623;SDS011;27319;50.306;18.926;2024-01-16T07:34:32;54.50;;;25.00;;
41623;SDS011;27319;50.306;18.926;2024-01-16T07:38:32;44.75;;;22.25;;
41623;SDS011;27319;50.306;18.926;2024-01-16T07:42:33;35.88;;;18.10;;
41623;SDS011;27319;50.306;18.926;2024-01-16T07:46:34;25.55;;;14.93;;
41623;SDS011;27319;50.306;18.926;2024-01-16T07:50:35;29.30;;;16.00;;
41623;SDS011;27319;50.306;18.926;2024-01-16T07:54:36;37.75;;;18.63;;
41623;SDS011;27319;50.306;18.926;2024-01-16T07:57:37;41.67;;;21.77;;
41623;SDS011;27319;50.306;18.926;2024-01-16T08:01:37;34.22;;;16.05;;
41623;SDS011;27319;50.306;18.926;2024-01-16T08:05:38;28.05;;;18.15;;
41623;SDS011;27319;50.306;18.926;2024-01-16T08:09:39;44.92;;;27.13;;
41623;SDS011;27319;50.306;18.926;2024-01-16T08:13:40;29.70;;;17.17;;
41623;SDS011;27319;50.306;18.926;2024-01-16T08:17:41;33.58;;;18.13;;
41623;SDS011;27319;50.306;18.926;2024-01-16T08:21:41;30.60;;;16.48;;
41623;SDS011;27319;50.306;18.926;2024-01-16T08:25:42;38.85;;;19.95;;
41623;SDS011;27319;50.306;18.926;2024-01-16T08:29:43;30.45;;;18.55;;
41623;SDS011;27319;50.306;18.926;2024-01-16T08:33:44;27.60;;;13.85;;
41623;SDS011;27319;50.306;18.926;2024-01-16T08:37:07;35.00;;;19.38;;
41623;SDS011;27319;50.306;18.926;2024-01-16T08:41:07;30.63;;;17.23;;
41623;SDS011;27319;50.306;18.926;2024-01-16T08:45:08;28.70;;;13.55;;
41623;SDS011;27319;50.306;18.926;2024-01-16T08:49:09;23.35;;;12.07;;
41623;SDS011;27319;50.306;18.926;2024-01-16T08:52:45;34.05;;;15.50;;
41623;SDS011;27319;50.306;18.926;2024-01-16T08:55:46;28.95;;;15.27;;
41623;SDS011;27319;50.306;18.926;2024-01-16T08:58:47;42.63;;;19.80;;
41623;SDS011;27319;50.306;18.926;2024-01-16T09:02:47;25.52;;;13.07;;
41623;SDS011;27319;50.306;18.926;2024-01-16T09:06:48;32.20;;;11.05;;
41623;SDS011;27319;50.306;18.926;2024-01-16T09:10:49;19.40;;;10.98;;
41623;SDS011;27319;50.306;18.926;2024-01-16T09:14:50;35.35;;;16.25;;
41623;SDS011;27319;50.306;18.926;2024-01-16T09:18:51;24.95;;;11.43;;
41623;SDS011;27319;50.306;18.926;2024-01-16T09:22:52;26.38;;;12.65;;
41623;SDS011;27319;50.306;18.926;2024-01-16T09:26:52;24.17;;;12.98;;
41623;SDS011;27319;50.306;18.926;2024-01-16T09:30:35;19.52;;;9.77;;
41623;SDS011;27319;50.306;18.926;2024-01-16T09:34:35;18.13;;;10.05;;
41623;SDS011;27319;50.306;18.926;2024-01-16T09:38:36;20.65;;;7.85;;
41623;SDS011;27319;50.306;18.926;2024-01-16T09:41:37;16.50;;;8.10;;
41623;SDS011;27319;50.306;18.926;2024-01-16T09:45:38;25.55;;;13.27;;
41623;SDS011;27319;50.306;18.926;2024-01-16T09:49:39;18.52;;;9.32;;
41623;SDS011;27319;50.306;18.926;2024-01-16T09:53:40;23.13;;;9.65;;
41623;SDS011;27319;50.306;18.926;2024-01-16T09:57:40;17.77;;;9.98;;
41623;SDS011;27319;50.306;18.926;2024-01-16T10:01:40;48.78;;;21.67;;
41623;SDS011;27319;50.306;18.926;2024-01-16T10:05:42;49.83;;;22.42;;
41623;SDS011;27319;50.306;18.926;2024-01-16T10:09:43;31.27;;;14.48;;
41623;SDS011;27319;50.306;18.926;2024-01-16T10:13:44;25.48;;;12.07;;
41623;SDS011;27319;50.306;18.926;2024-01-16T10:17:19;25.33;;;12.45;;
41623;SDS011;27319;50.306;18.926;2024-01-16T10:20:31;29.45;;;14.73;;
41623;SDS011;27319;50.306;18.926;2024-01-16T10:23:33;21.60;;;11.48;;
41623;SDS011;27319;50.306;18.926;2024-01-16T10:26:34;22.73;;;11.07;;
41623;SDS011;27319;50.306;18.926;2024-01-16T10:29:35;23.58;;;11.30;;
41623;SDS011;27319;50.306;18.926;2024-01-16T10:33:38;18.25;;;8.40;;
41623;SDS011;27319;50.306;18.926;2024-01-16T10:37:46;23.42;;;11.05;;
41623;SDS011;27319;50.306;18.926;2024-01-16T10:41:58;14.52;;;7.47;;
41623;SDS011;27319;50.306;18.926;2024-01-16T10:49:49;21.17;;;10.30;;
41623;SDS011;27319;50.306;18.926;2024-01-16T10:53:50;25.17;;;11.70;;
41623;SDS011;27319;50.306;18.926;2024-01-16T10:57:51;26.48;;;11.80;;
41623;SDS011;27319;50.306;18.926;2024-01-16T11:01:55;28.45;;;11.68;;
41623;SDS011;27319;50.306;18.926;2024-01-16T11:05:57;42.40;;;14.95;;
41623;SDS011;27319;50.306;18.926;2024-01-16T11:09:56;25.48;;;11.70;;
41623;SDS011;27319;50.306;18.926;2024-01-16T11:13:57;27.13;;;13.25;;
41623;SDS011;27319;50.306;18.926;2024-01-16T11:16:58;31.13;;;13.75;;
41623;SDS011;27319;50.306;18.926;2024-01-16T11:20:59;26.92;;;13.05;;
41623;SDS011;27319;50.306;18.926;2024-01-16T11:25:07;30.75;;;14.85;;
41623;SDS011;27319;50.306;18.926;2024-01-16T11:28:10;24.08;;;10.25;;
41623;SDS011;27319;50.306;18.926;2024-01-16T11:32:10;30.98;;;12.75;;
41623;SDS011;27319;50.306;18.926;2024-01-16T11:43:45;26.75;;;13.85;;
41623;SDS011;27319;50.306;18.926;2024-01-16T11:50:28;39.13;;;17.42;;
41623;SDS011;27319;50.306;18.926;2024-01-16T11:54:29;39.60;;;17.65;;
41623;SDS011;27319;50.306;18.926;2024-01-16T11:58:45;29.48;;;15.20;;
41623;SDS011;27319;50.306;18.926;2024-01-16T12:02:58;19.92;;;10.82;;
41623;SDS011;27319;50.306;18.926;2024-01-16T12:06:59;22.70;;;11.77;;
41623;SDS011;27319;50.306;18.926;2024-01-16T12:10:59;18.25;;;8.00;;
41623;SDS011;27319;50.306;18.926;2024-01-16T12:15:00;16.77;;;9.50;;
41623;SDS011;27319;50.306;18.926;2024-01-16T12:19:05;13.55;;;7.80;;
41623;SDS011;27319;50.306;18.926;2024-01-16T12:23:05;16.20;;;8.95;;
41623;SDS011;27319;50.306;18.926;2024-01-16T12:26:07;12.73;;;7.93;;
41623;SDS011;27319;50.306;18.926;2024-01-16T12:29:09;14.27;;;7.93;;
41623;SDS011;27319;50.306;18.926;2024-01-16T12:32:10;18.23;;;9.10;;
41623;SDS011;27319;50.306;18.926;2024-01-16T12:36:10;20.90;;;9.77;;
41623;SDS011;27319;50.306;18.926;2024-01-16T12:39:11;17.95;;;10.07;;
41623;SDS011;27319;50.306;18.926;2024-01-16T12:43:12;19.40;;;10.45;;
41623;SDS011;27319;50.306;18.926;2024-01-16T12:47:16;16.00;;;8.55;;
41623;SDS011;27319;50.306;18.926;2024-01-16T12:51:23;22.35;;;9.88;;
41623;SDS011;27319;50.306;18.926;2024-01-16T12:55:24;17.35;;;9.23;;
41623;SDS011;27319;50.306;18.926;2024-01-16T12:58:24;14.00;;;7.80;;
41623;SDS011;27319;50.306;18.926;2024-01-16T13:01:29;16.58;;;8.77;;
41623;SDS011;27319;50.306;18.926;2024-01-16T13:04:32;17.33;;;7.95;;
41623;SDS011;27319;50.306;18.926;2024-01-16T13:07:33;17.63;;;8.63;;
41623;SDS011;27319;50.306;18.926;2024-01-16T13:11:48;21.20;;;9.65;;
41623;SDS011;27319;50.306;18.926;2024-01-16T13:15:45;19.77;;;11.57;;
41623;SDS011;27319;50.306;18.926;2024-01-16T13:19:46;19.38;;;9.80;;
41623;SDS011;27319;50.306;18.926;2024-01-16T13:23:47;17.48;;;9.82;;
41623;SDS011;27319;50.306;18.926;2024-01-16T13:27:48;24.05;;;12.38;;
41623;SDS011;27319;50.306;18.926;2024-01-16T13:31:48;19.35;;;9.20;;
41623;SDS011;27319;50.306;18.926;2024-01-16T13:35:49;23.77;;;10.13;;
41623;SDS011;27319;50.306;18.926;2024-01-16T13:39:50;18.63;;;10.25;;
41623;SDS011;27319;50.306;18.926;2024-01-16T13:43:51;26.42;;;11.93;;
41623;SDS011;27319;50.306;18.926;2024-01-16T13:47:52;22.30;;;12.48;;
41623;SDS011;27319;50.306;18.926;2024-01-16T13:51:52;26.27;;;12.35;;
41623;SDS011;27319;50.306;18.926;2024-01-16T13:55:53;26.42;;;11.77;;
41623;SDS011;27319;50.306;18.926;2024-01-16T13:59:54;23.23;;;11.20;;
41623;SDS011;27319;50.306;18.926;2024-01-16T14:03:55;33.83;;;15.55;;
41623;SDS011;27319;50.306;18.926;2024-01-16T14:07:55;21.75;;;10.82;;
41623;SDS011;27319;50.306;18.926;2024-01-16T14:11:57;24.23;;;10.30;;
41623;SDS011;27319;50.306;18.926;2024-01-16T14:15:57;19.00;;;9.70;;
41623;SDS011;27319;50.306;18.926;2024-01-16T14:19:58;20.02;;;11.25;;
41623;SDS011;27319;50.306;18.926;2024-01-16T14:23:59;26.58;;;13.30;;
41623;SDS011;27319;50.306;18.926;2024-01-16T14:31:44;27.85;;;12.65;;
41623;SDS011;27319;50.306;18.926;2024-01-16T14:35:44;28.08;;;13.10;;
41623;SDS011;27319;50.306;18.926;2024-01-16T14:39:45;27.23;;;12.95;;
41623;SDS011;27319;50.306;18.926;2024-01-16T14:43:46;28.48;;;14.32;;
41623;SDS011;27319;50.306;18.926;2024-01-16T14:47:47;30.05;;;16.17;;
41623;SDS011;27319;50.306;18.926;2024-01-16T14:50:49;31.40;;;14.77;;
41623;SDS011;27319;50.306;18.926;2024-01-16T14:54:25;30.73;;;14.18;;
41623;SDS011;27319;50.306;18.926;2024-01-16T14:58:26;24.20;;;13.07;;
41623;SDS011;27319;50.306;18.926;2024-01-16T15:02:27;26.00;;;11.40;;
41623;SDS011;27319;50.306;18.926;2024-01-16T15:06:31;29.75;;;13.35;;
41623;SDS011;27319;50.306;18.926;2024-01-16T15:10:32;28.30;;;13.90;;
41623;SDS011;27319;50.306;18.926;2024-01-16T15:14:33;43.47;;;18.45;;
41623;SDS011;27319;50.306;18.926;2024-01-16T15:18:33;43.83;;;20.17;;
41623;SDS011;27319;50.306;18.926;2024-01-16T15:22:41;34.78;;;18.65;;
41623;SDS011;27319;50.306;18.926;2024-01-16T15:25:44;44.75;;;19.67;;
41623;SDS011;27319;50.306;18.926;2024-01-16T15:29:45;30.05;;;15.15;;
41623;SDS011;27319;50.306;18.926;2024-01-16T15:33:04;36.22;;;16.75;;
41623;SDS011;27319;50.306;18.926;2024-01-16T15:36:05;41.72;;;18.88;;
41623;SDS011;27319;50.306;18.926;2024-01-16T15:40:06;32.38;;;18.33;;
41623;SDS011;27319;50.306;18.926;2024-01-16T15:43:07;36.92;;;19.17;;
41623;SDS011;27319;50.306;18.926;2024-01-16T15:47:08;50.88;;;23.42;;
41623;SDS011;27319;50.306;18.926;2024-01-16T15:50:49;47.33;;;20.55;;
41623;SDS011;27319;50.306;18.926;2024-01-16T15:53:49;55.22;;;20.92;;
41623;SDS011;27319;50.306;18.926;2024-01-16T15:56:50;47.35;;;19.85;;
41623;SDS011;27319;50.306;18.926;2024-01-16T16:00:51;43.08;;;19.77;;
41623;SDS011;27319;50.306;18.926;2024-01-16T16:03:52;50.13;;;21.30;;
41623;SDS011;27319;50.306;18.926;2024-01-16T16:06:53;46.70;;;25.13;;
41623;SDS011;27319;50.306;18.926;2024-01-16T16:09:54;45.85;;;19.90;;
41623;SDS011;27319;50.306;18.926;2024-01-16T16:12:55;33.95;;;18.00;;
41623;SDS011;27319;50.306;18.926;2024-01-16T16:15:55;48.70;;;22.90;;
41623;SDS011;27319;50.306;18.926;2024-01-16T16:18:57;51.63;;;25.40;;
41623;SDS011;27319;50.306;18.926;2024-01-16T16:21:58;78.32;;;34.83;;
41623;SDS011;27319;50.306;18.926;2024-01-16T16:24:59;77.35;;;35.50;;
41623;SDS011;27319;50.306;18.926;2024-01-16T16:28:00;123.05;;;49.25;;
41623;SDS011;27319;50.306;18.926;2024-01-16T16:32:01;119.32;;;48.70;;
41623;SDS011;27319;50.306;18.926;2024-01-16T16:36:02;111.70;;;46.15;;
41623;SDS011;27319;50.306;18.926;2024-01-16T16:39:04;100.63;;;39.30;;
41623;SDS011;27319;50.306;18.926;2024-01-16T16:42:06;85.18;;;37.03;;
41623;SDS011;27319;50.306;18.926;2024-01-16T16:45:07;70.38;;;33.03;;
41623;SDS011;27319;50.306;18.926;2024-01-16T16:48:08;116.68;;;48.33;;
41623;SDS011;27319;50.306;18.926;2024-01-16T16:51:09;105.35;;;48.78;;
41623;SDS011;27319;50.306;18.926;2024-01-16T16:55:10;124.72;;;54.67;;
41623;SDS011;27319;50.306;18.926;2024-01-16T16:59:10;98.93;;;45.42;;
41623;SDS011;27319;50.306;18.926;2024-01-16T17:03:18;94.93;;;40.63;;
41623;SDS011;27319;50.306;18.926;2024-01-16T17:06:59;74.50;;;31.40;;
41623;SDS011;27319;50.306;18.926;2024-01-16T17:10:01;61.72;;;28.20;;
41623;SDS011;27319;50.306;18.926;2024-01-16T17:13:02;65.50;;;28.55;;
41623;SDS011;27319;50.306;18.926;2024-01-16T17:16:04;71.80;;;31.17;;
41623;SDS011;27319;50.306;18.926;2024-01-16T17:20:07;69.68;;;32.08;;
41623;SDS011;27319;50.306;18.926;2024-01-16T17:24:08;72.40;;;32.90;;
41623;SDS011;27319;50.306;18.926;2024-01-16T17:28:12;73.25;;;34.72;;
41623;SDS011;27319;50.306;18.926;2024-01-16T17:31:50;77.95;;;35.53;;
41623;SDS011;27319;50.306;18.926;2024-01-16T17:35:51;81.20;;;36.35;;
41623;SDS011;27319;50.306;18.926;2024-01-16T17:39:20;114.25;;;50.13;;
41623;SDS011;27319;50.306;18.926;2024-01-16T17:43:21;137.75;;;61.80;;
41623;SDS011;27319;50.306;18.926;2024-01-16T17:47:25;138.13;;;64.47;;
41623;SDS011;27319;50.306;18.926;2024-01-16T17:51:37;141.65;;;63.22;;
41623;SDS011;27319;50.306;18.926;2024-01-16T17:55:38;125.95;;;56.05;;
41623;SDS011;27319;50.306;18.926;2024-01-16T17:59:42;126.00;;;59.40;;
41623;SDS011;27319;50.306;18.926;2024-01-16T18:03:43;143.13;;;69.22;;
41623;SDS011;27319;50.306;18.926;2024-01-16T18:07:45;156.88;;;72.32;;
41623;SDS011;27319;50.306;18.926;2024-01-16T18:11:52;170.88;;;78.75;;
41623;SDS011;27319;50.306;18.926;2024-01-16T18:15:57;157.80;;;70.53;;
41623;SDS011;27319;50.306;18.926;2024-01-16T18:20:00;129.38;;;59.67;;
41623;SDS011;27319;50.306;18.926;2024-01-16T18:24:09;121.75;;;54.70;;
41623;SDS011;27319;50.306;18.926;2024-01-16T18:28:10;111.38;;;49.83;;
41623;SDS011;27319;50.306;18.926;2024-01-16T18:32:11;122.70;;;54.03;;
41623;SDS011;27319;50.306;18.926;2024-01-16T18:36:12;109.13;;;50.83;;
41623;SDS011;27319;50.306;18.926;2024-01-16T18:40:13;99.00;;;45.00;;
41623;SDS011;27319;50.306;18.926;2024-01-16T18:44:17;97.57;;;43.03;;
41623;SDS011;27319;50.306;18.926;2024-01-16T18:48:17;82.65;;;39.03;;
41623;SDS011;27319;50.306;18.926;2024-01-16T18:52:18;76.00;;;35.30;;
41623;SDS011;27319;50.306;18.926;2024-01-16T18:56:18;115.40;;;54.72;;
41623;SDS011;27319;50.306;18.926;2024-01-16T19:00:19;98.53;;;46.63;;
41623;SDS011;27319;50.306;18.926;2024-01-16T19:04:20;69.53;;;33.60;;
41623;SDS011;27319;50.306;18.926;2024-01-16T19:08:21;63.30;;;30.05;;
41623;SDS011;27319;50.306;18.926;2024-01-16T19:12:21;67.28;;;28.98;;
41623;SDS011;27319;50.306;18.926;2024-01-16T19:16:22;69.93;;;29.50;;
41623;SDS011;27319;50.306;18.926;2024-01-16T19:20:23;69.85;;;32.15;;
41623;SDS011;27319;50.306;18.926;2024-01-16T19:24:24;75.80;;;34.15;;
41623;SDS011;27319;50.306;18.926;2024-01-16T19:28:28;71.50;;;35.25;;
41623;SDS011;27319;50.306;18.926;2024-01-16T19:32:28;94.22;;;43.70;;
41623;SDS011;27319;50.306;18.926;2024-01-16T19:36:29;103.05;;;47.85;;
41623;SDS011;27319;50.306;18.926;2024-01-16T19:40:29;96.32;;;48.22;;
41623;SDS011;27319;50.306;18.926;2024-01-16T19:44:30;87.05;;;39.47;;
41623;SDS011;27319;50.306;18.926;2024-01-16T19:48:31;80.68;;;39.58;;
41623;SDS011;27319;50.306;18.926;2024-01-16T19:52:32;74.45;;;35.42;;
41623;SDS011;27319;50.306;18.926;2024-01-16T19:56:33;70.97;;;35.38;;
41623;SDS011;27319;50.306;18.926;2024-01-16T20:00:34;74.47;;;34.78;;
41623;SDS011;27319;50.306;18.926;2024-01-16T20:04:35;90.20;;;38.05;;
41623;SDS011;27319;50.306;18.926;2024-01-16T20:07:59;86.65;;;38.92;;
41623;SDS011;27319;50.306;18.926;2024-01-16T20:11:00;99.18;;;41.75;;
41623;SDS011;27319;50.306;18.926;2024-01-16T20:14:00;92.97;;;40.75;;
41623;SDS011;27319;50.306;18.926;2024-01-16T20:17:02;93.35;;;40.45;;
41623;SDS011;27319;50.306;18.926;2024-01-16T20:20:03;85.97;;;39.95;;
41623;SDS011;27319;50.306;18.926;2024-01-16T20:23:06;86.88;;;40.10;;
41623;SDS011;27319;50.306;18.926;2024-01-16T20:27:06;90.32;;;39.42;;
41623;SDS011;27319;50.306;18.926;2024-01-16T20:31:07;78.20;;;37.17;;
41623;SDS011;27319;50.306;18.926;2024-01-16T20:35:08;91.90;;;39.00;;
41623;SDS011;27319;50.306;18.926;2024-01-16T20:39:09;102.70;;;42.38;;
41623;SDS011;27319;50.306;18.926;2024-01-16T20:43:10;83.30;;;37.25;;
41623;SDS011;27319;50.306;18.926;2024-01-16T20:47:11;89.85;;;40.92;;
41623;SDS011;27319;50.306;18.926;2024-01-16T20:51:12;82.70;;;38.47;;
41623;SDS011;27319;50.306;18.926;2024-01-16T20:55:12;84.30;;;36.50;;
41623;SDS011;27319;50.306;18.926;2024-01-16T20:58:14;85.63;;;35.63;;
41623;SDS011;27319;50.306;18.926;2024-01-16T21:01:15;73.30;;;34.75;;
41623;SDS011;27319;50.306;18.926;2024-01-16T21:04:16;70.60;;;33.60;;
41623;SDS011;27319;50.306;18.926;2024-01-16T21:08:17;80.03;;;34.38;;
41623;SDS011;27319;50.306;18.926;2024-01-16T21:12:18;75.95;;;37.15;;
41623;SDS011;27319;50.306;18.926;2024-01-16T21:15:53;91.05;;;41.55;;
41623;SDS011;27319;50.306;18.926;2024-01-16T21:18:55;89.32;;;41.22;;
41623;SDS011;27319;50.306;18.926;2024-01-16T21:21:56;77.90;;;37.53;;
41623;SDS011;27319;50.306;18.926;2024-01-16T21:24:57;84.28;;;35.35;;
41623;SDS011;27319;50.306;18.926;2024-01-16T21:27:58;76.95;;;34.45;;
41623;SDS011;27319;50.306;18.926;2024-01-16T21:31:01;73.28;;;32.45;;
41623;SDS011;27319;50.306;18.926;2024-01-16T21:35:00;73.70;;;32.15;;
41623;SDS011;27319;50.306;18.926;2024-01-16T21:39:01;75.20;;;31.58;;
41623;SDS011;27319;50.306;18.926;2024-01-16T21:43:02;74.43;;;31.52;;